Terminal Aerodrome Forecast
Issued by NWS Wilmington, OH

Current Version | Previous Version | Graphics & Text | Print | Product List | Glossary On
Versions: 1 2 3 4 5 6 7 8 9 10 11 12 13 14 15 16 17 18 19 20 21 22 23 24 25
416
FTUS41 KILN 202347
TAFCVG
TAF
KCVG 202347Z 2100/2206 19010KT P6SM VCTS FEW015 BKN035CB OVC060
      TEMPO 2100/2102 2SM TSRA OVC015CB
     FM210300 22010KT P6SM BKN035
     FM210900 26008KT P6SM BKN025
     FM211400 28011KT P6SM BKN035
     FM212300 31005KT P6SM SCT250=

USA.gov is the U.S. government's official web portal to all federal, state and local government web resources and services.